sensor_id;sensor_type;location;lat;lon;timestamp;P1;durP1;ratioP1;P2;durP2;ratioP2
43664;SDS011;29263;48.172;11.484;2022-09-09T00:07:49;1.10;;;0.55;;
43664;SDS011;29263;48.172;11.484;2022-09-09T00:13:25;1.95;;;0.80;;
43664;SDS011;29263;48.172;11.484;2022-09-09T00:24:54;2.47;;;0.80;;
43664;SDS011;29263;48.172;11.484;2022-09-09T00:33:16;1.90;;;0.90;;
43664;SDS011;29263;48.172;11.484;2022-09-09T00:35:53;5.40;;;0.93;;
43664;SDS011;29263;48.172;11.484;2022-09-09T00:38:26;1.50;;;0.63;;
43664;SDS011;29263;48.172;11.484;2022-09-09T00:41:03;3.13;;;0.93;;
43664;SDS011;29263;48.172;11.484;2022-09-09T00:44:21;4.70;;;0.80;;
43664;SDS011;29263;48.172;11.484;2022-09-09T00:56:14;1.25;;;0.80;;
43664;SDS011;29263;48.172;11.484;2022-09-09T00:58:57;5.35;;;0.90;;
43664;SDS011;29263;48.172;11.484;2022-09-09T01:01:33;2.72;;;0.80;;
43664;SDS011;29263;48.172;11.484;2022-09-09T01:04:00;1.02;;;0.80;;
43664;SDS011;29263;48.172;11.484;2022-09-09T01:11:57;2.00;;;0.77;;
43664;SDS011;29263;48.172;11.484;2022-09-09T01:17:48;0.80;;;0.73;;
43664;SDS011;29263;48.172;11.484;2022-09-09T01:20:08;1.83;;;0.80;;
43664;SDS011;29263;48.172;11.484;2022-09-09T01:25:18;1.27;;;1.02;;
43664;SDS011;29263;48.172;11.484;2022-09-09T01:27:50;2.95;;;1.35;;
43664;SDS011;29263;48.172;11.484;2022-09-09T01:30:19;2.80;;;1.05;;
43664;SDS011;29263;48.172;11.484;2022-09-09T01:39:34;2.58;;;0.98;;
43664;SDS011;29263;48.172;11.484;2022-09-09T01:42:01;4.95;;;1.17;;
43664;SDS011;29263;48.172;11.484;2022-09-09T01:44:29;2.55;;;1.02;;
43664;SDS011;29263;48.172;11.484;2022-09-09T01:46:55;4.53;;;1.08;;
43664;SDS011;29263;48.172;11.484;2022-09-09T01:49:21;2.05;;;1.02;;
43664;SDS011;29263;48.172;11.484;2022-09-09T01:54:33;2.40;;;1.33;;
43664;SDS011;29263;48.172;11.484;2022-09-09T02:02:33;1.67;;;1.00;;
43664;SDS011;29263;48.172;11.484;2022-09-09T02:08:24;4.22;;;1.20;;
43664;SDS011;29263;48.172;11.484;2022-09-09T02:11:08;2.28;;;1.02;;
43664;SDS011;29263;48.172;11.484;2022-09-09T02:13:40;6.20;;;1.15;;
43664;SDS011;29263;48.172;11.484;2022-09-09T02:19:34;0.90;;;0.85;;
43664;SDS011;29263;48.172;11.484;2022-09-09T02:25:26;2.17;;;0.90;;
43664;SDS011;29263;48.172;11.484;2022-09-09T02:27:54;1.65;;;1.00;;
43664;SDS011;29263;48.172;11.484;2022-09-09T02:30:23;2.70;;;0.93;;
43664;SDS011;29263;48.172;11.484;2022-09-09T02:32:48;2.03;;;0.90;;
43664;SDS011;29263;48.172;11.484;2022-09-09T02:35:19;4.83;;;1.20;;
43664;SDS011;29263;48.172;11.484;2022-09-09T02:44:12;1.55;;;0.82;;
43664;SDS011;29263;48.172;11.484;2022-09-09T02:58:13;1.45;;;1.02;;
43664;SDS011;29263;48.172;11.484;2022-09-09T03:00:47;1.67;;;0.70;;
43664;SDS011;29263;48.172;11.484;2022-09-09T03:06:38;2.17;;;0.85;;
43664;SDS011;29263;48.172;11.484;2022-09-09T03:09:04;2.15;;;1.00;;
43664;SDS011;29263;48.172;11.484;2022-09-09T03:11:30;2.08;;;1.00;;
43664;SDS011;29263;48.172;11.484;2022-09-09T03:16:40;2.67;;;1.00;;
43664;SDS011;29263;48.172;11.484;2022-09-09T03:19:10;2.38;;;1.00;;
43664;SDS011;29263;48.172;11.484;2022-09-09T03:44:13;1.50;;;0.93;;
43664;SDS011;29263;48.172;11.484;2022-09-09T03:46:39;0.95;;;0.90;;
43664;SDS011;29263;48.172;11.484;2022-09-09T03:52:10;4.13;;;1.25;;
43664;SDS011;29263;48.172;11.484;2022-09-09T03:54:35;2.53;;;1.23;;
43664;SDS011;29263;48.172;11.484;2022-09-09T03:57:01;2.45;;;1.10;;
43664;SDS011;29263;48.172;11.484;2022-09-09T03:59:27;3.38;;;0.70;;
43664;SDS011;29263;48.172;11.484;2022-09-09T04:01:53;0.88;;;0.77;;
43664;SDS011;29263;48.172;11.484;2022-09-09T04:04:19;1.85;;;0.90;;
43664;SDS011;29263;48.172;11.484;2022-09-09T04:06:45;3.38;;;0.88;;
43664;SDS011;29263;48.172;11.484;2022-09-09T04:09:13;2.70;;;0.90;;
43664;SDS011;29263;48.172;11.484;2022-09-09T04:11:39;1.55;;;0.88;;
43664;SDS011;29263;48.172;11.484;2022-09-09T04:14:05;3.60;;;1.10;;
43664;SDS011;29263;48.172;11.484;2022-09-09T04:16:31;5.55;;;0.85;;
43664;SDS011;29263;48.172;11.484;2022-09-09T04:18:57;1.92;;;0.88;;
43664;SDS011;29263;48.172;11.484;2022-09-09T04:24:46;1.33;;;0.90;;
43664;SDS011;29263;48.172;11.484;2022-09-09T04:27:14;3.70;;;1.52;;
43664;SDS011;29263;48.172;11.484;2022-09-09T04:29:39;1.77;;;1.00;;
43664;SDS011;29263;48.172;11.484;2022-09-09T04:32:05;3.78;;;0.95;;
43664;SDS011;29263;48.172;11.484;2022-09-09T04:34:31;4.20;;;0.98;;
43664;SDS011;29263;48.172;11.484;2022-09-09T04:36:58;2.38;;;0.80;;
43664;SDS011;29263;48.172;11.484;2022-09-09T04:39:25;1.52;;;0.90;;
43664;SDS011;29263;48.172;11.484;2022-09-09T04:41:51;0.95;;;0.80;;
43664;SDS011;29263;48.172;11.484;2022-09-09T04:44:16;2.63;;;0.77;;
43664;SDS011;29263;48.172;11.484;2022-09-09T04:46:42;2.45;;;0.88;;
43664;SDS011;29263;48.172;11.484;2022-09-09T04:49:08;2.45;;;0.70;;
43664;SDS011;29263;48.172;11.484;2022-09-09T04:51:33;1.42;;;0.90;;
43664;SDS011;29263;48.172;11.484;2022-09-09T04:53:59;1.85;;;0.73;;
43664;SDS011;29263;48.172;11.484;2022-09-09T04:56:24;2.28;;;1.20;;
43664;SDS011;29263;48.172;11.484;2022-09-09T04:58:53;0.70;;;0.70;;
43664;SDS011;29263;48.172;11.484;2022-09-09T05:01:20;3.60;;;0.95;;
43664;SDS011;29263;48.172;11.484;2022-09-09T05:03:48;2.08;;;0.90;;
43664;SDS011;29263;48.172;11.484;2022-09-09T05:06:14;1.02;;;0.85;;
43664;SDS011;29263;48.172;11.484;2022-09-09T05:08:42;3.03;;;1.25;;
43664;SDS011;29263;48.172;11.484;2022-09-09T05:11:21;1.33;;;1.20;;
43664;SDS011;29263;48.172;11.484;2022-09-09T05:13:49;1.38;;;0.70;;
43664;SDS011;29263;48.172;11.484;2022-09-09T05:16:15;1.50;;;0.70;;
43664;SDS011;29263;48.172;11.484;2022-09-09T05:18:42;2.88;;;0.90;;
43664;SDS011;29263;48.172;11.484;2022-09-09T05:21:08;0.98;;;0.80;;
43664;SDS011;29263;48.172;11.484;2022-09-09T05:23:35;1.13;;;0.70;;
43664;SDS011;29263;48.172;11.484;2022-09-09T05:26:01;1.63;;;0.75;;
43664;SDS011;29263;48.172;11.484;2022-09-09T05:28:27;1.48;;;0.80;;
43664;SDS011;29263;48.172;11.484;2022-09-09T05:30:59;2.58;;;0.90;;
43664;SDS011;29263;48.172;11.484;2022-09-09T05:33:37;2.17;;;0.90;;
43664;SDS011;29263;48.172;11.484;2022-09-09T05:36:09;2.03;;;1.17;;
43664;SDS011;29263;48.172;11.484;2022-09-09T05:38:38;1.48;;;0.95;;
43664;SDS011;29263;48.172;11.484;2022-09-09T05:41:04;2.45;;;0.80;;
43664;SDS011;29263;48.172;11.484;2022-09-09T05:43:30;1.35;;;0.82;;
43664;SDS011;29263;48.172;11.484;2022-09-09T05:46:07;5.45;;;1.10;;
43664;SDS011;29263;48.172;11.484;2022-09-09T05:48:35;2.47;;;0.93;;
43664;SDS011;29263;48.172;11.484;2022-09-09T05:51:03;1.23;;;0.90;;
43664;SDS011;29263;48.172;11.484;2022-09-09T05:53:30;3.28;;;0.95;;
43664;SDS011;29263;48.172;11.484;2022-09-09T05:56:03;3.05;;;1.05;;
43664;SDS011;29263;48.172;11.484;2022-09-09T05:58:30;4.18;;;1.08;;
43664;SDS011;29263;48.172;11.484;2022-09-09T06:01:06;1.52;;;0.77;;
43664;SDS011;29263;48.172;11.484;2022-09-09T06:03:36;2.55;;;1.00;;
43664;SDS011;29263;48.172;11.484;2022-09-09T06:06:04;1.58;;;1.10;;
43664;SDS011;29263;48.172;11.484;2022-09-09T06:08:32;2.92;;;1.10;;
43664;SDS011;29263;48.172;11.484;2022-09-09T06:11:06;1.00;;;0.80;;
43664;SDS011;29263;48.172;11.484;2022-09-09T06:13:32;2.58;;;1.08;;
43664;SDS011;29263;48.172;11.484;2022-09-09T06:15:58;1.65;;;1.02;;
43664;SDS011;29263;48.172;11.484;2022-09-09T06:18:24;1.02;;;0.85;;
43664;SDS011;29263;48.172;11.484;2022-09-09T06:20:57;2.20;;;0.70;;
43664;SDS011;29263;48.172;11.484;2022-09-09T06:23:29;3.15;;;1.00;;
43664;SDS011;29263;48.172;11.484;2022-09-09T06:26:02;5.20;;;0.85;;
43664;SDS011;29263;48.172;11.484;2022-09-09T06:28:34;2.65;;;0.70;;
43664;SDS011;29263;48.172;11.484;2022-09-09T06:31:01;2.38;;;1.00;;
43664;SDS011;29263;48.172;11.484;2022-09-09T06:33:32;1.00;;;0.88;;
43664;SDS011;29263;48.172;11.484;2022-09-09T06:36:04;3.60;;;1.50;;
43664;SDS011;29263;48.172;11.484;2022-09-09T06:38:30;3.15;;;0.88;;
43664;SDS011;29263;48.172;11.484;2022-09-09T06:40:56;2.33;;;1.40;;
43664;SDS011;29263;48.172;11.484;2022-09-09T06:43:24;3.47;;;0.80;;
43664;SDS011;29263;48.172;11.484;2022-09-09T06:45:54;3.15;;;0.70;;
43664;SDS011;29263;48.172;11.484;2022-09-09T06:48:20;3.10;;;0.75;;
43664;SDS011;29263;48.172;11.484;2022-09-09T06:50:45;0.82;;;0.57;;
43664;SDS011;29263;48.172;11.484;2022-09-09T06:53:11;1.40;;;0.80;;
43664;SDS011;29263;48.172;11.484;2022-09-09T06:55:37;0.60;;;0.50;;
43664;SDS011;29263;48.172;11.484;2022-09-09T06:58:08;1.27;;;0.65;;
43664;SDS011;29263;48.172;11.484;2022-09-09T07:00:34;0.93;;;0.40;;
43664;SDS011;29263;48.172;11.484;2022-09-09T07:03:02;4.25;;;0.70;;
43664;SDS011;29263;48.172;11.484;2022-09-09T07:05:28;1.13;;;0.60;;
43664;SDS011;29263;48.172;11.484;2022-09-09T07:07:53;5.95;;;0.77;;
43664;SDS011;29263;48.172;11.484;2022-09-09T07:10:19;3.28;;;0.65;;
43664;SDS011;29263;48.172;11.484;2022-09-09T07:12:45;1.55;;;0.70;;
43664;SDS011;29263;48.172;11.484;2022-09-09T07:15:16;3.28;;;0.60;;
43664;SDS011;29263;48.172;11.484;2022-09-09T07:17:43;5.78;;;1.15;;
43664;SDS011;29263;48.172;11.484;2022-09-09T07:20:09;1.33;;;0.90;;
43664;SDS011;29263;48.172;11.484;2022-09-09T07:22:35;2.40;;;1.10;;
43664;SDS011;29263;48.172;11.484;2022-09-09T07:25:00;2.75;;;1.35;;
43664;SDS011;29263;48.172;11.484;2022-09-09T07:27:27;3.88;;;1.10;;
43664;SDS011;29263;48.172;11.484;2022-09-09T07:29:52;2.50;;;1.15;;
43664;SDS011;29263;48.172;11.484;2022-09-09T07:32:19;2.55;;;1.17;;
43664;SDS011;29263;48.172;11.484;2022-09-09T07:34:45;3.67;;;1.50;;
43664;SDS011;29263;48.172;11.484;2022-09-09T07:37:12;1.98;;;1.38;;
43664;SDS011;29263;48.172;11.484;2022-09-09T07:39:38;2.25;;;1.17;;
43664;SDS011;29263;48.172;11.484;2022-09-09T07:42:04;2.10;;;1.60;;
43664;SDS011;29263;48.172;11.484;2022-09-09T07:44:30;3.10;;;1.30;;
43664;SDS011;29263;48.172;11.484;2022-09-09T07:46:59;2.83;;;1.50;;
43664;SDS011;29263;48.172;11.484;2022-09-09T07:49:25;2.60;;;1.30;;
43664;SDS011;29263;48.172;11.484;2022-09-09T07:51:51;1.67;;;1.30;;
43664;SDS011;29263;48.172;11.484;2022-09-09T07:54:17;1.70;;;1.35;;
43664;SDS011;29263;48.172;11.484;2022-09-09T07:56:48;2.75;;;1.20;;
43664;SDS011;29263;48.172;11.484;2022-09-09T07:59:14;2.30;;;1.60;;
43664;SDS011;29263;48.172;11.484;2022-09-09T08:01:44;2.03;;;1.42;;
43664;SDS011;29263;48.172;11.484;2022-09-09T08:04:13;5.20;;;1.42;;
43664;SDS011;29263;48.172;11.484;2022-09-09T08:09:18;3.30;;;1.48;;
43664;SDS011;29263;48.172;11.484;2022-09-09T08:11:44;2.58;;;1.38;;
43664;SDS011;29263;48.172;11.484;2022-09-09T08:14:10;2.63;;;0.90;;
43664;SDS011;29263;48.172;11.484;2022-09-09T08:16:38;3.33;;;1.00;;
43664;SDS011;29263;48.172;11.484;2022-09-09T08:21:33;3.22;;;1.10;;
43664;SDS011;29263;48.172;11.484;2022-09-09T08:24:02;1.33;;;1.00;;
43664;SDS011;29263;48.172;11.484;2022-09-09T08:26:29;1.75;;;1.00;;
43664;SDS011;29263;48.172;11.484;2022-09-09T08:28:57;4.20;;;1.00;;
43664;SDS011;29263;48.172;11.484;2022-09-09T08:31:27;2.35;;;1.48;;
43664;SDS011;29263;48.172;11.484;2022-09-09T08:33:56;2.60;;;0.93;;
43664;SDS011;29263;48.172;11.484;2022-09-09T08:36:24;2.60;;;1.10;;
43664;SDS011;29263;48.172;11.484;2022-09-09T08:38:53;2.20;;;1.30;;
43664;SDS011;29263;48.172;11.484;2022-09-09T08:44:13;1.77;;;1.30;;
43664;SDS011;29263;48.172;11.484;2022-09-09T08:52:22;2.90;;;1.33;;
43664;SDS011;29263;48.172;11.484;2022-09-09T08:54:52;1.83;;;1.30;;
43664;SDS011;29263;48.172;11.484;2022-09-09T08:57:23;2.28;;;1.27;;
43664;SDS011;29263;48.172;11.484;2022-09-09T08:59:52;2.95;;;1.55;;
43664;SDS011;29263;48.172;11.484;2022-09-09T09:02:43;1.73;;;1.05;;
43664;SDS011;29263;48.172;11.484;2022-09-09T09:10:39;2.35;;;1.00;;
43664;SDS011;29263;48.172;11.484;2022-09-09T09:15:42;4.13;;;1.10;;
43664;SDS011;29263;48.172;11.484;2022-09-09T09:18:12;3.22;;;1.10;;
43664;SDS011;29263;48.172;11.484;2022-09-09T09:23:29;2.15;;;1.10;;
43664;SDS011;29263;48.172;11.484;2022-09-09T09:26:06;2.63;;;1.17;;
43664;SDS011;29263;48.172;11.484;2022-09-09T09:28:35;3.35;;;0.82;;
43664;SDS011;29263;48.172;11.484;2022-09-09T09:31:03;3.00;;;0.80;;
43664;SDS011;29263;48.172;11.484;2022-09-09T09:36:14;2.00;;;0.70;;
43664;SDS011;29263;48.172;11.484;2022-09-09T09:38:51;2.08;;;1.08;;
43664;SDS011;29263;48.172;11.484;2022-09-09T09:44:02;1.50;;;0.47;;
43664;SDS011;29263;48.172;11.484;2022-09-09T09:46:29;3.70;;;0.63;;
43664;SDS011;29263;48.172;11.484;2022-09-09T09:49:00;1.85;;;0.68;;
43664;SDS011;29263;48.172;11.484;2022-09-09T09:51:28;2.47;;;0.57;;
43664;SDS011;29263;48.172;11.484;2022-09-09T09:54:31;3.63;;;0.73;;
43664;SDS011;29263;48.172;11.484;2022-09-09T09:56:53;0.70;;;0.70;;
43664;SDS011;29263;48.172;11.484;2022-09-09T10:01:54;1.25;;;0.70;;
43664;SDS011;29263;48.172;11.484;2022-09-09T10:04:31;3.70;;;0.93;;
43664;SDS011;29263;48.172;11.484;2022-09-09T10:06:58;3.42;;;0.90;;
43664;SDS011;29263;48.172;11.484;2022-09-09T10:09:34;1.60;;;1.00;;
43664;SDS011;29263;48.172;11.484;2022-09-09T10:12:14;1.48;;;0.75;;
43664;SDS011;29263;48.172;11.484;2022-09-09T10:14:45;1.70;;;0.80;;
43664;SDS011;29263;48.172;11.484;2022-09-09T10:20:34;1.13;;;0.70;;
43664;SDS011;29263;48.172;11.484;2022-09-09T10:28:37;3.53;;;0.90;;
43664;SDS011;29263;48.172;11.484;2022-09-09T10:31:24;5.47;;;1.08;;
43664;SDS011;29263;48.172;11.484;2022-09-09T10:36:46;2.63;;;0.70;;
43664;SDS011;29263;48.172;11.484;2022-09-09T10:42:05;2.90;;;1.02;;
43664;SDS011;29263;48.172;11.484;2022-09-09T10:55:42;1.55;;;0.80;;
43664;SDS011;29263;48.172;11.484;2022-09-09T10:58:12;1.83;;;0.67;;
43664;SDS011;29263;48.172;11.484;2022-09-09T11:00:49;6.68;;;1.77;;
43664;SDS011;29263;48.172;11.484;2022-09-09T11:03:20;2.08;;;0.60;;
43664;SDS011;29263;48.172;11.484;2022-09-09T11:08:25;1.13;;;0.60;;
43664;SDS011;29263;48.172;11.484;2022-09-09T11:18:46;1.73;;;0.40;;
43664;SDS011;29263;48.172;11.484;2022-09-09T11:21:17;2.60;;;0.52;;
43664;SDS011;29263;48.172;11.484;2022-09-09T11:23:52;1.17;;;0.40;;
43664;SDS011;29263;48.172;11.484;2022-09-09T11:26:26;0.65;;;0.30;;
43664;SDS011;29263;48.172;11.484;2022-09-09T11:29:07;0.50;;;0.30;;
43664;SDS011;29263;48.172;11.484;2022-09-09T11:40:20;1.23;;;0.40;;
43664;SDS011;29263;48.172;11.484;2022-09-09T11:42:48;5.45;;;0.45;;
43664;SDS011;29263;48.172;11.484;2022-09-09T11:47:52;1.90;;;0.30;;
43664;SDS011;29263;48.172;11.484;2022-09-09T11:52:46;0.65;;;0.30;;
43664;SDS011;29263;48.172;11.484;2022-09-09T12:00:35;0.45;;;0.30;;
43664;SDS011;29263;48.172;11.484;2022-09-09T12:03:06;1.45;;;0.45;;
43664;SDS011;29263;48.172;11.484;2022-09-09T12:06:11;0.85;;;0.55;;
43664;SDS011;29263;48.172;11.484;2022-09-09T12:08:51;1.15;;;0.45;;
43664;SDS011;29263;48.172;11.484;2022-09-09T12:11:25;0.50;;;0.40;;
43664;SDS011;29263;48.172;11.484;2022-09-09T12:13:52;0.77;;;0.47;;
43664;SDS011;29263;48.172;11.484;2022-09-09T12:16:35;1.15;;;0.38;;
43664;SDS011;29263;48.172;11.484;2022-09-09T12:19:24;0.45;;;0.30;;
43664;SDS011;29263;48.172;11.484;2022-09-09T12:24:49;0.93;;;0.50;;
43664;SDS011;29263;48.172;11.484;2022-09-09T12:27:40;1.17;;;0.40;;
43664;SDS011;29263;48.172;11.484;2022-09-09T12:30:14;1.40;;;0.40;;
43664;SDS011;29263;48.172;11.484;2022-09-09T12:32:41;1.17;;;0.50;;
43664;SDS011;29263;48.172;11.484;2022-09-09T12:35:10;1.45;;;0.38;;
43664;SDS011;29263;48.172;11.484;2022-09-09T12:37:51;1.58;;;0.50;;
43664;SDS011;29263;48.172;11.484;2022-09-09T12:40:26;0.70;;;0.20;;
43664;SDS011;29263;48.172;11.484;2022-09-09T12:42:53;1.00;;;0.40;;
43664;SDS011;29263;48.172;11.484;2022-09-09T12:45:25;1.65;;;0.63;;
43664;SDS011;29263;48.172;11.484;2022-09-09T12:48:14;0.75;;;0.22;;
43664;SDS011;29263;48.172;11.484;2022-09-09T12:50:45;0.73;;;0.25;;
43664;SDS011;29263;48.172;11.484;2022-09-09T12:55:52;0.63;;;0.35;;
43664;SDS011;29263;48.172;11.484;2022-09-09T12:58:24;2.08;;;0.60;;
43664;SDS011;29263;48.172;11.484;2022-09-09T13:00:53;1.43;;;0.50;;
43664;SDS011;29263;48.172;11.484;2022-09-09T13:03:23;2.17;;;0.60;;
43664;SDS011;29263;48.172;11.484;2022-09-09T13:05:52;2.43;;;0.60;;
43664;SDS011;29263;48.172;11.484;2022-09-09T13:08:19;0.85;;;0.40;;
43664;SDS011;29263;48.172;11.484;2022-09-09T13:13:22;1.02;;;0.30;;
43664;SDS011;29263;48.172;11.484;2022-09-09T13:15:56;2.45;;;0.52;;
43664;SDS011;29263;48.172;11.484;2022-09-09T13:18:27;0.55;;;0.35;;
43664;SDS011;29263;48.172;11.484;2022-09-09T13:21:05;2.00;;;0.47;;
43664;SDS011;29263;48.172;11.484;2022-09-09T13:23:34;0.77;;;0.30;;
43664;SDS011;29263;48.172;11.484;2022-09-09T13:26:03;1.13;;;0.40;;
43664;SDS011;29263;48.172;11.484;2022-09-09T13:28:32;1.55;;;0.30;;
43664;SDS011;29263;48.172;11.484;2022-09-09T13:31:18;3.05;;;0.30;;
43664;SDS011;29263;48.172;11.484;2022-09-09T13:33:46;2.17;;;0.65;;
43664;SDS011;29263;48.172;11.484;2022-09-09T13:36:12;1.40;;;0.55;;
43664;SDS011;29263;48.172;11.484;2022-09-09T13:41:19;1.45;;;0.25;;
43664;SDS011;29263;48.172;11.484;2022-09-09T13:44:19;1.02;;;0.30;;
43664;SDS011;29263;48.172;11.484;2022-09-09T13:47:00;1.03;;;0.20;;
43664;SDS011;29263;48.172;11.484;2022-09-09T13:49:27;0.90;;;0.40;;
43664;SDS011;29263;48.172;11.484;2022-09-09T13:52:03;0.52;;;0.20;;
43664;SDS011;29263;48.172;11.484;2022-09-09T13:54:32;1.55;;;0.30;;
43664;SDS011;29263;48.172;11.484;2022-09-09T13:56:58;1.45;;;0.38;;
43664;SDS011;29263;48.172;11.484;2022-09-09T13:59:25;1.40;;;0.32;;
43664;SDS011;29263;48.172;11.484;2022-09-09T14:01:50;1.95;;;0.35;;
43664;SDS011;29263;48.172;11.484;2022-09-09T14:04:17;0.38;;;0.25;;
43664;SDS011;29263;48.172;11.484;2022-09-09T14:06:44;2.25;;;0.30;;
43664;SDS011;29263;48.172;11.484;2022-09-09T14:09:10;2.08;;;0.22;;
43664;SDS011;29263;48.172;11.484;2022-09-09T14:11:39;2.17;;;0.40;;
43664;SDS011;29263;48.172;11.484;2022-09-09T14:14:05;2.80;;;0.30;;
43664;SDS011;29263;48.172;11.484;2022-09-09T14:16:31;1.75;;;0.60;;
43664;SDS011;29263;48.172;11.484;2022-09-09T14:18:57;3.95;;;0.45;;
43664;SDS011;29263;48.172;11.484;2022-09-09T14:21:24;0.57;;;0.30;;
43664;SDS011;29263;48.172;11.484;2022-09-09T14:23:51;1.00;;;0.40;;
43664;SDS011;29263;48.172;11.484;2022-09-09T14:26:18;1.20;;;0.30;;
43664;SDS011;29263;48.172;11.484;2022-09-09T14:28:46;3.03;;;0.50;;
43664;SDS011;29263;48.172;11.484;2022-09-09T14:31:13;0.90;;;0.40;;
43664;SDS011;29263;48.172;11.484;2022-09-09T14:33:39;1.20;;;0.40;;
43664;SDS011;29263;48.172;11.484;2022-09-09T14:36:05;1.38;;;0.38;;
43664;SDS011;29263;48.172;11.484;2022-09-09T14:38:35;2.05;;;0.40;;
43664;SDS011;29263;48.172;11.484;2022-09-09T14:41:06;0.35;;;0.10;;
43664;SDS011;29263;48.172;11.484;2022-09-09T14:43:34;1.73;;;0.32;;
43664;SDS011;29263;48.172;11.484;2022-09-09T14:46:09;0.93;;;0.40;;
43664;SDS011;29263;48.172;11.484;2022-09-09T14:48:37;0.75;;;0.43;;
43664;SDS011;29263;48.172;11.484;2022-09-09T14:51:09;2.33;;;0.32;;
43664;SDS011;29263;48.172;11.484;2022-09-09T14:53:37;2.10;;;0.50;;
43664;SDS011;29263;48.172;11.484;2022-09-09T14:56:17;2.00;;;0.32;;
43664;SDS011;29263;48.172;11.484;2022-09-09T14:58:43;3.60;;;0.40;;
43664;SDS011;29263;48.172;11.484;2022-09-09T15:01:10;0.95;;;0.30;;
43664;SDS011;29263;48.172;11.484;2022-09-09T15:03:38;2.72;;;0.40;;
43664;SDS011;29263;48.172;11.484;2022-09-09T15:06:08;4.45;;;0.50;;
43664;SDS011;29263;48.172;11.484;2022-09-09T15:08:36;0.82;;;0.22;;
43664;SDS011;29263;48.172;11.484;2022-09-09T15:11:03;1.00;;;0.40;;
43664;SDS011;29263;48.172;11.484;2022-09-09T15:13:30;3.90;;;0.40;;
43664;SDS011;29263;48.172;11.484;2022-09-09T15:16:00;0.80;;;0.17;;
43664;SDS011;29263;48.172;11.484;2022-09-09T15:21:33;1.17;;;0.25;;
43664;SDS011;29263;48.172;11.484;2022-09-09T15:24:00;1.98;;;0.20;;
43664;SDS011;29263;48.172;11.484;2022-09-09T15:26:26;0.47;;;0.30;;
43664;SDS011;29263;48.172;11.484;2022-09-09T15:28:52;2.47;;;0.40;;
43664;SDS011;29263;48.172;11.484;2022-09-09T15:31:22;1.17;;;0.22;;
43664;SDS011;29263;48.172;11.484;2022-09-09T15:33:50;1.45;;;0.32;;
43664;SDS011;29263;48.172;11.484;2022-09-09T15:36:26;1.33;;;0.28;;
43664;SDS011;29263;48.172;11.484;2022-09-09T15:38:53;0.52;;;0.28;;
43664;SDS011;29263;48.172;11.484;2022-09-09T15:41:20;2.55;;;0.43;;
43664;SDS011;29263;48.172;11.484;2022-09-09T15:43:48;1.75;;;0.30;;
43664;SDS011;29263;48.172;11.484;2022-09-09T15:51:52;1.35;;;0.30;;
43664;SDS011;29263;48.172;11.484;2022-09-09T15:54:19;1.63;;;0.43;;
43664;SDS011;29263;48.172;11.484;2022-09-09T15:56:49;3.08;;;0.77;;
43664;SDS011;29263;48.172;11.484;2022-09-09T15:59:20;2.85;;;0.68;;
43664;SDS011;29263;48.172;11.484;2022-09-09T16:01:47;1.25;;;0.63;;
43664;SDS011;29263;48.172;11.484;2022-09-09T16:04:17;1.23;;;0.30;;
43664;SDS011;29263;48.172;11.484;2022-09-09T16:06:59;1.45;;;0.30;;
43664;SDS011;29263;48.172;11.484;2022-09-09T16:09:28;1.50;;;0.30;;
43664;SDS011;29263;48.172;11.484;2022-09-09T16:11:57;2.60;;;0.50;;
43664;SDS011;29263;48.172;11.484;2022-09-09T16:14:25;4.10;;;0.40;;
43664;SDS011;29263;48.172;11.484;2022-09-09T16:16:52;2.67;;;1.05;;
43664;SDS011;29263;48.172;11.484;2022-09-09T16:19:17;0.95;;;0.30;;
43664;SDS011;29263;48.172;11.484;2022-09-09T16:21:45;1.48;;;0.40;;
43664;SDS011;29263;48.172;11.484;2022-09-09T16:24:13;1.55;;;0.40;;
43664;SDS011;29263;48.172;11.484;2022-09-09T16:26:42;2.20;;;0.40;;
43664;SDS011;29263;48.172;11.484;2022-09-09T16:29:10;1.50;;;0.40;;
43664;SDS011;29263;48.172;11.484;2022-09-09T16:31:36;1.02;;;0.25;;
43664;SDS011;29263;48.172;11.484;2022-09-09T16:34:05;1.25;;;0.40;;
43664;SDS011;29263;48.172;11.484;2022-09-09T16:36:32;1.55;;;0.40;;
43664;SDS011;29263;48.172;11.484;2022-09-09T16:38:59;2.08;;;0.50;;
43664;SDS011;29263;48.172;11.484;2022-09-09T16:41:27;2.30;;;0.40;;
43664;SDS011;29263;48.172;11.484;2022-09-09T16:43:54;2.50;;;0.63;;
43664;SDS011;29263;48.172;11.484;2022-09-09T16:46:25;1.85;;;0.35;;
43664;SDS011;29263;48.172;11.484;2022-09-09T16:48:52;3.70;;;0.50;;
43664;SDS011;29263;48.172;11.484;2022-09-09T16:51:24;2.95;;;0.40;;
43664;SDS011;29263;48.172;11.484;2022-09-09T16:53:54;2.28;;;0.45;;
43664;SDS011;29263;48.172;11.484;2022-09-09T16:56:23;2.33;;;0.57;;
43664;SDS011;29263;48.172;11.484;2022-09-09T16:58:50;0.98;;;0.30;;
43664;SDS011;29263;48.172;11.484;2022-09-09T17:01:21;1.50;;;0.40;;
43664;SDS011;29263;48.172;11.484;2022-09-09T17:03:54;1.65;;;0.40;;
43664;SDS011;29263;48.172;11.484;2022-09-09T17:08:46;1.48;;;0.20;;
43664;SDS011;29263;48.172;11.484;2022-09-09T17:13:58;2.05;;;0.68;;
43664;SDS011;29263;48.172;11.484;2022-09-09T17:16:26;1.48;;;0.40;;
43664;SDS011;29263;48.172;11.484;2022-09-09T17:18:53;0.30;;;0.30;;
43664;SDS011;29263;48.172;11.484;2022-09-09T17:21:21;2.25;;;0.50;;
43664;SDS011;29263;48.172;11.484;2022-09-09T17:23:49;1.15;;;0.40;;
43664;SDS011;29263;48.172;11.484;2022-09-09T17:26:15;1.65;;;0.57;;
43664;SDS011;29263;48.172;11.484;2022-09-09T17:28:43;1.30;;;0.60;;
43664;SDS011;29263;48.172;11.484;2022-09-09T17:31:10;0.55;;;0.40;;
43664;SDS011;29263;48.172;11.484;2022-09-09T17:33:39;0.60;;;0.50;;
43664;SDS011;29263;48.172;11.484;2022-09-09T17:36:13;1.65;;;0.40;;
43664;SDS011;29263;48.172;11.484;2022-09-09T17:38:45;1.23;;;0.35;;
43664;SDS011;29263;48.172;11.484;2022-09-09T17:41:13;3.00;;;0.52;;
43664;SDS011;29263;48.172;11.484;2022-09-09T17:43:41;1.90;;;0.63;;
43664;SDS011;29263;48.172;11.484;2022-09-09T17:48:46;1.00;;;0.45;;
43664;SDS011;29263;48.172;11.484;2022-09-09T17:51:15;2.08;;;0.47;;
43664;SDS011;29263;48.172;11.484;2022-09-09T17:53:46;0.60;;;0.32;;
43664;SDS011;29263;48.172;11.484;2022-09-09T17:56:14;2.90;;;0.50;;
43664;SDS011;29263;48.172;11.484;2022-09-09T17:58:41;1.77;;;0.60;;
43664;SDS011;29263;48.172;11.484;2022-09-09T18:01:08;1.35;;;0.70;;
43664;SDS011;29263;48.172;11.484;2022-09-09T18:03:37;1.17;;;0.50;;
43664;SDS011;29263;48.172;11.484;2022-09-09T18:06:05;1.65;;;0.40;;
43664;SDS011;29263;48.172;11.484;2022-09-09T18:08:33;2.90;;;0.50;;
43664;SDS011;29263;48.172;11.484;2022-09-09T18:11:00;7.20;;;0.95;;
43664;SDS011;29263;48.172;11.484;2022-09-09T18:13:27;5.30;;;0.77;;
43664;SDS011;29263;48.172;11.484;2022-09-09T18:15:53;1.08;;;0.45;;
43664;SDS011;29263;48.172;11.484;2022-09-09T18:18:19;0.77;;;0.43;;
43664;SDS011;29263;48.172;11.484;2022-09-09T18:20:45;1.02;;;0.40;;
43664;SDS011;29263;48.172;11.484;2022-09-09T18:23:20;5.32;;;1.00;;
43664;SDS011;29263;48.172;11.484;2022-09-09T18:25:46;1.77;;;0.50;;
43664;SDS011;29263;48.172;11.484;2022-09-09T18:28:12;2.70;;;0.70;;
43664;SDS011;29263;48.172;11.484;2022-09-09T18:30:38;1.17;;;0.50;;
43664;SDS011;29263;48.172;11.484;2022-09-09T18:33:04;1.98;;;0.63;;
43664;SDS011;29263;48.172;11.484;2022-09-09T18:35:30;1.00;;;0.50;;
43664;SDS011;29263;48.172;11.484;2022-09-09T18:37:55;1.35;;;0.60;;
43664;SDS011;29263;48.172;11.484;2022-09-09T18:40:21;0.80;;;0.70;;
43664;SDS011;29263;48.172;11.484;2022-09-09T18:42:47;1.83;;;0.55;;
43664;SDS011;29263;48.172;11.484;2022-09-09T18:45:13;0.85;;;0.50;;